Flight Track Log - Related Links

Times and Time Zones

All times are in EDT time to prevent confusion due to time zone crossing. See the DAL3688 flight status page for this flight to view local times or setup timezone preferences in your user account.

Time Position Orientation Groundspeed Altitude Reporting Facility
EDT Latitude Longitude Course Direction KTS MPH feet Rate Location/Type
Sun 10:53:19 AM 42.2017 -83.3544 94° East 161 185 1,800  Level FAA TRACON SMA TRACON (SMA)
Sun 10:53:38 AM 42.1872 -83.3564 186° South 176 203 2,700 3,077 Climbing FAA TRACON SMA TRACON (SMA)
Sun 10:53:58 AM 42.1686 -83.3575 183° South 194 223 3,800 3,450 Climbing FAA TRACON SMA TRACON (SMA)
Sun 10:54:18 AM 42.1486 -83.3581 181° South 202 232 5,000 2,850 Climbing FAA TRACON SMA TRACON (SMA)
Sun 10:54:38 AM 42.1294 -83.3589 182° South 232 267 5,700 2,400 Climbing FAA TRACON SMA TRACON (SMA)
Sun 10:54:58 AM 42.1050 -83.3592 180° South 258 297 6,600 2,700 Climbing FAA TRACON SMA TRACON (SMA)
Sun 10:55:18 AM 42.0836 -83.3564 174° South 268 308 7,500 3,450 Climbing FAA TRACON SMA TRACON (SMA)
Sun 10:55:38 AM 42.0631 -83.3311 138° Southeast 265 305 8,900 3,450 Climbing FAA TRACON SMA TRACON (SMA)
Sun 10:55:58 AM 42.0586 -83.3008 101° East 266 306 9,800 1,610 Climbing FAA TRACON SMA TRACON (SMA)
Sun 10:56:00 AM 42.2167 -82.7386 90° East  Level FlightAware Approximate
Sun 10:56:19 AM 42.0656 -83.2686 74° East 314 361 10,000  Level FAA TRACON SMA TRACON (SMA)
Sun 10:56:39 AM 42.0756 -83.2236 73° East 337 388 10,100 150 Climbing FAA TRACON SMA TRACON (SMA)
Sun 10:56:59 AM 42.0842 -83.1842 74° East 357 411 10,100 150 Level FAA TRACON SMA TRACON (SMA)
Sun 10:57:00 AM 42.2167 -82.5849 90° East  Level FlightAware Approximate
Sun 10:57:19 AM 42.0925 -83.1428 75° East 366 421 10,200  Level FAA TRACON SMA TRACON (SMA)
Sun 10:57:40 AM 42.0992 -83.1019 78° East 317 365 10,800 1,704 Climbing Cleveland Center
Sun 10:58:00 AM 42.2165 -82.4311 94° East  Level FlightAware Approximate
Sun 10:58:40 AM 42.1250 -82.9628 76° East 354 407 12,500  Level Cleveland Center
Sun 10:59:40 AM 42.1528 -82.8211 75° East 378 435 14,500 2,050 Climbing Cleveland Center
Sun 11:00:40 AM 42.1806 -82.6764 75° East 385 443 16,600 1,650 Climbing Cleveland Center
Sun 11:01:40 AM 42.2083 -82.5258 76° East 397 457 17,800 1,450 Climbing Cleveland Center
Sun 11:02:40 AM 42.2169 -82.3692 86° East 403 464 19,500 1,700 Climbing Cleveland Center
Sun 11:03:40 AM 42.2069 -82.2147 95° East 408 470 21,200 1,600 Climbing Cleveland Center
Sun 11:04:40 AM 42.1947 -82.0378 95° East 422 486 22,700 900 Climbing Cleveland Center
Sun 11:05:40 AM 42.1483 -81.8911 113° Southeast 419 482 23,000 550 Climbing Cleveland Center
Sun 11:06:40 AM 42.0517 -81.7800 140° Southeast 425 489 23,800 1,050 Climbing Cleveland Center
Sun 11:07:40 AM 41.9569 -81.6664 138° Southeast 436 502 25,100 1,150 Climbing Cleveland Center
Sun 11:08:40 AM 41.8703 -81.5675 140° Southeast 446 513 26,100 950 Climbing Cleveland Center
Sun 11:09:40 AM 41.7772 -81.4603 139° Southeast 446 513 27,000 450 Climbing Cleveland Center
Sun 11:10:40 AM 41.6803 -81.3506 140° Southeast 453 521 27,000  Level Cleveland Center
Sun 11:11:40 AM 41.5786 -81.2356 140° Southeast 469 540 27,000  Level Cleveland Center
Sun 11:12:40 AM 41.4836 -81.0847 130° Southeast 476 548 27,000  Level Cleveland Center
Sun 11:13:40 AM 41.4217 -80.9236 117° Southeast 482 555 27,000  Level Cleveland Center
Sun 11:14:40 AM 41.3575 -80.7603 118° Southeast 489 563 27,000  Level Cleveland Center
Sun 11:15:40 AM 41.2950 -80.5969 117° Southeast 495 570 27,000  Level Cleveland Center
Sun 11:16:40 AM 41.2325 -80.4367 117° Southeast 490 564 27,000  Level Cleveland Center
Sun 11:17:40 AM 41.1758 -80.2908 117° Southeast 490 564 27,000  Level Cleveland Center
Sun 11:18:40 AM 41.1086 -80.1256 118° Southeast 495 570 27,000 -150 Level Cleveland Center
Sun 11:19:40 AM 41.0453 -79.9664 118° Southeast 495 570 26,700 -700 Descending Cleveland Center
Sun 11:20:40 AM 40.9817 -79.8075 118° Southeast 495 570 25,600 -1,050 Descending Cleveland Center
Sun 11:21:40 AM 40.9203 -79.6544 118° Southeast 488 562 24,600 -800 Descending Cleveland Center
Sun 11:22:40 AM 40.8564 -79.5014 119° Southeast 483 556 24,000 -600 Descending Cleveland Center
Sun 11:23:40 AM 40.7964 -79.3517 118° Southeast 471 542 23,400 -800 Descending Cleveland Center
Sun 11:24:40 AM 40.7364 -79.2019 118° Southeast 466 536 22,400 -1,000 Descending Cleveland Center
Sun 11:25:40 AM 40.6739 -79.0528 119° Southeast 461 531 21,400 -1,000 Descending Cleveland Center
Sun 11:26:40 AM 40.6028 -78.8903 120° Southeast 461 531 20,400 -1,000 Descending Cleveland Center
Sun 11:27:40 AM 40.5442 -78.7417 117° Southeast 456 525 19,400 -1,000 Descending Cleveland Center
Sun 11:28:40 AM 40.5206 -78.5783 101° East 446 513 18,400 -700 Descending Cleveland Center
Sun 11:29:40 AM 40.5014 -78.4314 100° East 446 513 18,000 -625 Descending Cleveland Center
Sun 11:30:16 AM 40.4847 -78.3250 102° East 447 514 17,400 -990 Descending New York Center
Sun 11:31:17 AM 40.4667 -78.1839 100° East 441 507 16,400 -992 Descending New York Center
Sun 11:32:17 AM 40.4444 -78.0342 101° East 431 496 15,400 -992 Descending New York Center
Sun 11:33:18 AM 40.4244 -77.8847 100° East 420 483 14,400 -1,017 Descending New York Center
Sun 11:34:15 AM 40.4017 -77.7406 102° East 414 476 13,400 -1,068 Descending New York Center
Sun 11:35:16 AM 40.3756 -77.5825 102° East 409 471 12,300 -1,041 Descending New York Center
Sun 11:36:16 AM 40.3564 -77.4444 100° East 398 458 11,300 -1,041 Descending New York Center
Sun 11:37:17 AM 40.3183 -77.3428 116° Southeast 328 377 10,200 -1,140 Descending New York Center
Sun 11:38:17 AM 40.2794 -77.2547 120° Southeast 294 338 9,000 -1,250 Descending New York Center
Sun 11:39:17 AM 40.2422 -77.1697 120° Southeast 278 320 7,700 -1,200 Descending New York Center
Sun 11:40:17 AM 40.2031 -77.0844 121° Southeast 272 313 6,600 -1,190 Descending New York Center
Sun 11:41:18 AM 40.1636 -77.0019 122° Southeast 266 306 5,300 -857 Descending New York Center
Sun 11:42:16 AM 40.1300 -76.9283 121° Southeast 266 306 4,900 -712 Descending New York Center
Sun 11:43:16 AM 40.1056 -76.8367 109° East 248 285 3,900 -450 Descending New York Center
Sun 11:44:16 AM 40.0950 -76.7597 100° East 237 273 4,000 100 Climbing New York Center

Login

Don't have an account? Register now (free) for customized features, flight alerts, and more!